createdAt,value
2022-10-05T00:01:58.715Z,9.29
2022-10-05T00:12:09.920Z,9.02
2022-10-05T00:22:15.419Z,9.14
2022-10-05T00:32:20.163Z,8.99
2022-10-05T00:42:35.482Z,8.90
2022-10-05T00:52:45.948Z,8.71
2022-10-05T01:02:55.155Z,8.71
2022-10-05T01:13:04.893Z,8.61
2022-10-05T01:23:43.703Z,8.53
2022-10-05T01:33:55.366Z,8.51
2022-10-05T01:44:00.776Z,8.59
2022-10-05T01:54:13.834Z,8.54
2022-10-05T02:04:37.267Z,8.07
2022-10-05T02:14:45.763Z,8.32
2022-10-05T02:24:52.408Z,8.37
2022-10-05T02:35:00.804Z,8.31
2022-10-05T02:45:10.750Z,8.46
2022-10-05T02:55:19.322Z,8.29
2022-10-05T03:05:26.392Z,8.24
2022-10-05T03:15:53.391Z,8.27
2022-10-05T03:26:07.100Z,8.01
2022-10-05T03:36:19.171Z,8.04
2022-10-05T03:46:28.518Z,8.03
2022-10-05T03:56:34.849Z,8.13
2022-10-05T04:06:42.372Z,8.01
2022-10-05T04:16:49.101Z,8.16
2022-10-05T04:26:55.558Z,7.99
2022-10-05T04:37:01.184Z,7.81
2022-10-05T04:47:27.443Z,8.15
2022-10-05T04:57:36.583Z,8.05
2022-10-05T05:07:46.311Z,8.21
2022-10-05T05:18:05.062Z,8.22
2022-10-05T05:28:18.383Z,8.19
2022-10-05T05:38:29.650Z,8.18
2022-10-05T05:48:38.972Z,8.41
2022-10-05T05:58:47.077Z,9.00
2022-10-05T06:08:51.931Z,9.61
2022-10-05T06:18:58.694Z,10.48
2022-10-05T06:29:04.202Z,10.19
2022-10-05T06:39:30.935Z,10.21
2022-10-05T06:49:41.347Z,10.79
2022-10-05T06:59:51.254Z,11.35
2022-10-05T07:10:05.151Z,12.06
2022-10-05T07:20:17.130Z,12.84
2022-10-05T07:30:20.401Z,13.71
2022-10-05T07:40:29.456Z,14.32
2022-10-05T07:50:36.870Z,14.14
2022-10-05T08:01:07.678Z,14.96
2022-10-05T08:11:16.143Z,15.44
2022-10-05T08:21:23.755Z,15.78
2022-10-05T08:31:28.909Z,16.39
2022-10-05T08:41:48.785Z,16.81
2022-10-05T08:52:24.011Z,16.81
2022-10-05T09:02:44.062Z,16.95
2022-10-05T09:13:47.799Z,17.77
2022-10-05T09:24:02.899Z,18.77
2022-10-05T09:34:31.802Z,19.18
2022-10-05T09:44:49.510Z,18.72
2022-10-05T09:55:32.762Z,18.58
2022-10-05T10:06:12.749Z,18.72
2022-10-05T10:16:36.957Z,19.25
2022-10-05T10:27:12.497Z,20.13
2022-10-05T10:37:39.566Z,19.88
2022-10-05T10:47:52.755Z,20.14
2022-10-05T10:58:19.152Z,20.42
2022-10-05T11:08:55.129Z,20.26
2022-10-05T11:19:24.845Z,20.00
2022-10-05T11:30:12.733Z,20.51
2022-10-05T11:40:36.605Z,20.84
2022-10-05T11:50:43.891Z,21.16
2022-10-05T12:00:54.571Z,21.28
2022-10-05T12:11:07.320Z,20.29
2022-10-05T12:21:18.881Z,20.56
2022-10-05T12:31:36.940Z,20.43
2022-10-05T12:41:46.272Z,20.75
2022-10-05T12:51:56.611Z,20.97
2022-10-05T13:02:08.751Z,20.88
2022-10-05T13:12:17.944Z,20.20
2022-10-05T13:22:28.913Z,20.69
2022-10-05T13:32:36.773Z,21.04
2022-10-05T13:42:45.117Z,20.57
2022-10-05T13:52:53.281Z,21.03
2022-10-05T14:02:59.688Z,20.78
2022-10-05T14:13:03.770Z,20.95
2022-10-05T14:23:22.204Z,20.91
2022-10-05T14:33:27.849Z,20.83
2022-10-05T14:43:32.473Z,20.55
2022-10-05T14:53:40.281Z,20.84
2022-10-05T15:04:03.454Z,20.71
2022-10-05T15:14:16.267Z,20.52
2022-10-05T15:24:24.269Z,20.27
2022-10-05T15:34:33.863Z,19.99
2022-10-05T15:44:49.807Z,19.78
2022-10-05T15:55:38.236Z,19.54
2022-10-05T16:06:04.861Z,19.31
2022-10-05T16:16:20.778Z,19.10
2022-10-05T16:26:32.710Z,18.74
2022-10-05T16:36:57.833Z,18.39
2022-10-05T16:47:06.391Z,18.02
2022-10-05T16:57:18.905Z,17.73
2022-10-05T17:07:35.963Z,17.34
2022-10-05T17:17:53.154Z,17.00
2022-10-05T17:28:00.255Z,16.80
2022-10-05T17:38:14.381Z,16.52
2022-10-05T17:48:40.487Z,16.32
2022-10-05T17:58:59.472Z,15.84
2022-10-05T18:09:33.052Z,15.68
2022-10-05T18:19:37.666Z,15.53
2022-10-05T18:30:09.014Z,15.14
2022-10-05T18:40:26.371Z,15.02
2022-10-05T18:50:35.500Z,14.74
2022-10-05T19:00:51.401Z,14.59
2022-10-05T19:10:58.479Z,14.52
2022-10-05T19:21:06.856Z,14.30
2022-10-05T19:31:20.928Z,14.20
2022-10-05T19:41:28.715Z,14.16
2022-10-05T19:51:34.253Z,14.06
2022-10-05T20:01:43.619Z,13.97
2022-10-05T20:11:51.965Z,13.98
2022-10-05T20:21:59.741Z,13.83
2022-10-05T20:32:08.122Z,13.73
2022-10-05T20:42:11.902Z,13.65
2022-10-05T20:52:16.284Z,13.76
2022-10-05T21:02:20.332Z,13.61
2022-10-05T21:12:24.801Z,13.37
2022-10-05T21:22:27.930Z,13.12
2022-10-05T21:32:32.445Z,13.15
2022-10-05T21:42:35.534Z,13.04
2022-10-05T21:52:39.953Z,13.04
2022-10-05T22:02:43.053Z,12.99
2022-10-05T22:12:48.081Z,12.85
2022-10-05T22:22:51.746Z,12.81
2022-10-05T22:32:56.393Z,12.56
2022-10-05T22:42:59.554Z,12.67
2022-10-05T22:53:04.170Z,12.80
2022-10-05T23:03:07.355Z,13.22
2022-10-05T23:13:11.889Z,13.34
2022-10-05T23:23:14.971Z,13.35
2022-10-05T23:33:19.424Z,13.29
2022-10-05T23:43:22.531Z,13.07
2022-10-05T23:53:27.167Z,13.01
